Terminal Aerodrome Forecast
Issued by NWS

Home | Current Version | Previous Version | Text Only | Print | Product List | Glossary On
Versions: 1 2 3 4 5 6 7 8 9 10 11
000
FTUS41 KBTV 270520
TAFRUT
TAF
KRUT 270520Z 2706/2806 14005KT P6SM SCT120
     FM271300 19009G17KT P6SM SCT050 SCT150
     FM272000 20009G17KT P6SM VCTS BKN050CB
     FM280000 15006KT P6SM BKN050
      AMD LTD TO CLD VIS AND WIND=

USA.gov is the U.S. government's official web portal to all federal, state and local government web resources and services.